createdAt,value
2018-08-07T00:00:14.241Z,24.80
2018-08-07T00:01:14.163Z,24.75
2018-08-07T00:02:14.119Z,24.64
2018-08-07T00:03:13.981Z,24.68
2018-08-07T00:05:56.284Z,24.61
2018-08-07T00:06:56.195Z,24.56
2018-08-07T00:07:56.099Z,24.52
2018-08-07T00:08:56.022Z,24.53
2018-08-07T00:09:55.935Z,24.55
2018-08-07T00:10:56.895Z,24.39
2018-08-07T00:11:55.797Z,24.39
2018-08-07T00:14:37.742Z,24.34
2018-08-07T00:15:37.656Z,24.36
2018-08-07T00:16:37.617Z,24.30
2018-08-07T00:19:19.744Z,24.30
2018-08-07T00:22:01.765Z,24.26
2018-08-07T00:23:01.694Z,24.24
2018-08-07T00:24:01.599Z,24.29
2018-08-07T00:25:01.592Z,24.33
2018-08-07T00:26:01.446Z,24.33
2018-08-07T00:27:01.417Z,24.33
2018-08-07T00:28:01.306Z,24.27
2018-08-07T00:29:01.227Z,24.29
2018-08-07T00:30:01.136Z,24.27
2018-08-07T00:31:01.374Z,24.31
2018-08-07T00:32:00.999Z,24.29
2018-08-07T00:33:00.916Z,24.21
2018-08-07T00:34:00.843Z,24.19
2018-08-07T00:35:00.777Z,24.09
2018-08-07T00:36:00.703Z,24.09
2018-08-07T00:37:00.713Z,24.16
2018-08-07T00:38:00.547Z,24.08
2018-08-07T00:39:00.466Z,24.16
2018-08-07T00:40:00.393Z,24.09
2018-08-07T00:41:00.351Z,24.12
2018-08-07T00:42:00.296Z,24.11
2018-08-07T00:43:00.189Z,24.23
2018-08-07T00:44:00.116Z,24.24
2018-08-07T00:45:00.023Z,24.11
2018-08-07T00:45:59.956Z,24.09
2018-08-07T00:46:59.913Z,24.11
2018-08-07T00:47:59.784Z,24.12
2018-08-07T00:48:59.746Z,24.09
2018-08-07T00:49:59.646Z,24.14
2018-08-07T00:50:59.751Z,24.11
2018-08-07T00:51:59.534Z,24.12
2018-08-07T00:52:59.432Z,24.02
2018-08-07T00:53:59.337Z,24.06
2018-08-07T00:54:59.265Z,24.05
2018-08-07T00:55:59.186Z,23.94
2018-08-07T00:56:59.134Z,23.90
2018-08-07T00:57:59.215Z,24.05
2018-08-07T00:58:58.978Z,24.05
2018-08-07T00:59:58.871Z,23.92
2018-08-07T01:00:58.814Z,23.96
2018-08-07T01:01:58.732Z,24.06
2018-08-07T01:02:58.668Z,23.96
2018-08-07T01:03:58.616Z,24.08
2018-08-07T01:04:58.509Z,23.92
2018-08-07T01:05:58.422Z,23.94
2018-08-07T01:06:58.353Z,23.99
2018-08-07T01:07:58.279Z,23.90
2018-08-07T01:08:58.232Z,23.89
2018-08-07T01:09:58.117Z,23.82
2018-08-07T01:12:40.258Z,23.79
2018-08-07T01:13:40.214Z,23.75
2018-08-07T01:14:40.124Z,23.84
2018-08-07T01:17:22.824Z,23.86
2018-08-07T01:18:22.367Z,24.00
2018-08-07T01:19:22.877Z,23.93
2018-08-07T01:20:22.037Z,24.09
2018-08-07T01:21:21.951Z,24.12
2018-08-07T01:22:21.880Z,24.11
2018-08-07T01:23:21.809Z,24.14
2018-08-07T01:24:23.061Z,24.06
2018-08-07T01:25:21.657Z,24.04
2018-08-07T01:26:21.583Z,24.00
2018-08-07T01:27:21.505Z,23.97
2018-08-07T01:28:21.429Z,24.18
2018-08-07T01:29:21.405Z,24.18
2018-08-07T01:30:21.283Z,24.18
2018-08-07T01:31:21.301Z,24.18
2018-08-07T01:32:21.134Z,24.24
2018-08-07T01:33:21.053Z,24.06
2018-08-07T01:34:21.004Z,24.06
2018-08-07T01:35:20.924Z,23.97
2018-08-07T01:36:20.852Z,23.93
2018-08-07T01:37:20.786Z,23.94
2018-08-07T01:40:02.773Z,23.84
2018-08-07T01:41:02.828Z,23.86
2018-08-07T01:42:02.613Z,23.81
2018-08-07T01:43:02.544Z,23.87
2018-08-07T01:44:02.461Z,23.78
2018-08-07T01:45:02.447Z,23.77
2018-08-07T01:46:02.320Z,23.87
2018-08-07T01:47:02.240Z,23.84
2018-08-07T01:48:02.155Z,23.82
2018-08-07T01:49:02.089Z,23.87
2018-08-07T01:50:02.023Z,23.84
2018-08-07T01:52:44.284Z,23.75
2018-08-07T01:55:26.295Z,23.62
2018-08-07T01:56:27.214Z,23.63
2018-08-07T01:57:26.112Z,23.69
2018-08-07T01:58:26.056Z,23.64
2018-08-07T01:59:26.002Z,23.57
2018-08-07T02:00:26.042Z,23.63
2018-08-07T02:01:26.801Z,23.53
2018-08-07T02:02:25.993Z,23.47
2018-08-07T02:03:25.955Z,23.62
2018-08-07T02:04:25.616Z,23.49
2018-08-07T02:05:25.529Z,23.38
2018-08-07T02:06:25.435Z,23.39
2018-08-07T02:07:25.377Z,23.34
2018-08-07T02:10:07.277Z,23.15
2018-08-07T02:11:07.233Z,23.15
2018-08-07T02:12:07.247Z,23.09
2018-08-07T02:13:07.080Z,23.04
2018-08-07T02:14:06.967Z,23.07
2018-08-07T02:15:06.898Z,23.04
2018-08-07T02:16:06.820Z,22.97
2018-08-07T02:17:06.791Z,23.03
2018-08-07T02:18:06.662Z,22.91
2018-08-07T02:20:48.785Z,22.78
2018-08-07T02:21:48.735Z,22.76
2018-08-07T02:22:48.620Z,22.89
2018-08-07T02:23:48.647Z,22.89
2018-08-07T02:24:48.484Z,22.89
2018-08-07T02:25:48.418Z,22.86
2018-08-07T02:26:48.368Z,22.76
2018-08-07T02:29:30.276Z,22.91
2018-08-07T02:30:30.214Z,22.75
2018-08-07T02:31:30.144Z,22.88
2018-08-07T02:32:31.071Z,22.91
2018-08-07T02:33:29.976Z,22.99
2018-08-07T02:34:29.904Z,23.09
2018-08-07T02:35:29.826Z,23.09
2018-08-07T02:36:29.760Z,23.14
2018-08-07T02:37:29.697Z,23.15
2018-08-07T02:38:29.617Z,23.22
2018-08-07T02:39:29.513Z,23.18
2018-08-07T02:40:29.447Z,23.26
2018-08-07T02:41:29.499Z,23.29
2018-08-07T02:42:29.550Z,23.22
2018-08-07T02:43:29.558Z,23.32
2018-08-07T02:44:29.594Z,23.35
2018-08-07T02:45:29.048Z,23.41
2018-08-07T02:46:28.982Z,23.35
2018-08-07T02:47:28.928Z,23.47
2018-08-07T02:48:28.849Z,23.56
2018-08-07T02:49:28.755Z,23.49
2018-08-07T02:50:28.675Z,23.38
2018-08-07T02:51:28.590Z,23.38
2018-08-07T02:52:28.548Z,23.52
2018-08-07T02:53:28.443Z,23.45
2018-08-07T02:56:10.407Z,23.57
2018-08-07T02:57:10.236Z,23.38
2018-08-07T02:58:10.189Z,23.37
2018-08-07T02:59:10.073Z,23.22
2018-08-07T03:00:09.979Z,23.32
2018-08-07T03:02:52.313Z,23.21
2018-08-07T03:03:52.230Z,23.16
2018-08-07T03:04:52.137Z,23.16
2018-08-07T03:05:52.060Z,23.06
2018-08-07T03:06:51.981Z,23.09
2018-08-07T03:07:51.943Z,22.96
2018-08-07T03:08:51.854Z,22.96
2018-08-07T03:09:51.764Z,22.86
2018-08-07T03:10:51.705Z,22.86
2018-08-07T03:11:51.608Z,22.75
2018-08-07T03:12:51.527Z,22.66
2018-08-07T03:13:51.475Z,22.66
2018-08-07T03:14:51.373Z,22.66
2018-08-07T03:17:33.298Z,22.69
2018-08-07T03:18:34.275Z,22.59
2018-08-07T03:19:33.165Z,22.56
2018-08-07T03:20:33.077Z,22.56
2018-08-07T03:21:32.991Z,22.67
2018-08-07T03:22:32.954Z,22.67
2018-08-07T03:23:32.998Z,22.64
2018-08-07T03:24:33.200Z,22.57
2018-08-07T03:25:32.786Z,22.56
2018-08-07T03:26:33.825Z,22.51
2018-08-07T03:27:32.537Z,22.52
2018-08-07T03:28:32.490Z,22.57
2018-08-07T03:29:32.393Z,22.54
2018-08-07T03:30:32.299Z,22.60
2018-08-07T03:31:32.225Z,22.60
2018-08-07T03:32:32.206Z,22.60
2018-08-07T03:33:32.073Z,22.49
2018-08-07T03:34:32.019Z,22.57
2018-08-07T03:35:31.898Z,22.46
2018-08-07T03:36:31.907Z,22.52
2018-08-07T03:37:31.757Z,22.49
2018-08-07T03:38:31.684Z,22.56
2018-08-07T03:39:31.613Z,22.57
2018-08-07T03:40:31.525Z,22.59
2018-08-07T03:41:31.455Z,22.56
2018-08-07T03:42:31.415Z,22.45
2018-08-07T03:43:31.289Z,22.42
2018-08-07T03:44:31.239Z,22.44
2018-08-07T03:45:31.120Z,22.42
2018-08-07T03:46:31.081Z,22.29
2018-08-07T03:47:30.980Z,22.41
2018-08-07T03:50:12.829Z,22.31
2018-08-07T03:51:12.732Z,22.35
2018-08-07T03:52:12.654Z,22.33
2018-08-07T03:53:12.693Z,22.31
2018-08-07T03:54:12.545Z,22.44
2018-08-07T03:55:12.471Z,22.33
2018-08-07T03:56:12.347Z,22.29
2018-08-07T03:57:12.285Z,22.20
2018-08-07T03:58:12.181Z,22.24
2018-08-07T03:59:12.121Z,22.30
2018-08-07T04:00:12.045Z,22.29
2018-08-07T04:01:11.948Z,22.19
2018-08-07T04:02:11.878Z,22.14
2018-08-07T04:03:11.835Z,22.11
2018-08-07T04:04:11.759Z,22.01
2018-08-07T04:05:11.695Z,21.90
2018-08-07T04:06:11.583Z,21.90
2018-08-07T04:08:53.823Z,21.93
2018-08-07T04:09:53.760Z,21.94
2018-08-07T04:10:53.692Z,21.90
2018-08-07T04:11:53.591Z,21.85
2018-08-07T04:12:53.498Z,21.77
2018-08-07T04:13:53.433Z,21.81
2018-08-07T04:14:53.349Z,21.93
2018-08-07T04:15:53.313Z,21.91
2018-08-07T04:16:53.218Z,21.91
2018-08-07T04:17:53.118Z,21.94
2018-08-07T04:18:53.046Z,21.93
2018-08-07T04:19:52.966Z,21.96
2018-08-07T04:20:52.885Z,21.90
2018-08-07T04:21:53.833Z,21.93
2018-08-07T04:22:52.746Z,22.02
2018-08-07T04:25:34.813Z,22.02
2018-08-07T04:26:35.759Z,22.05
2018-08-07T04:27:34.671Z,21.98
2018-08-07T04:28:34.599Z,22.11
2018-08-07T04:29:34.524Z,22.21
2018-08-07T04:30:34.458Z,22.19
2018-08-07T04:31:34.387Z,22.15
2018-08-07T04:32:34.284Z,21.93
2018-08-07T04:33:34.192Z,21.91
2018-08-07T04:34:34.147Z,21.89
2018-08-07T04:35:34.036Z,21.79
2018-08-07T04:36:34.015Z,21.81
2018-08-07T04:37:33.895Z,21.74
2018-08-07T04:38:33.815Z,21.83
2018-08-07T04:39:33.747Z,21.90
2018-08-07T04:40:33.660Z,21.89
2018-08-07T04:41:33.587Z,22.05
2018-08-07T04:42:33.531Z,21.99
2018-08-07T04:43:33.417Z,22.06
2018-08-07T04:46:15.319Z,22.09
2018-08-07T04:47:15.278Z,22.14
2018-08-07T04:48:15.183Z,22.08
2018-08-07T04:49:15.098Z,22.21
2018-08-07T04:50:15.031Z,22.14
2018-08-07T04:51:14.948Z,22.29
2018-08-07T04:52:14.900Z,22.29
2018-08-07T04:53:14.801Z,22.31
2018-08-07T04:54:14.725Z,22.33
2018-08-07T04:55:14.657Z,22.29
2018-08-07T04:56:14.559Z,22.35
2018-08-07T04:57:15.488Z,22.39
2018-08-07T04:58:14.409Z,22.30
2018-08-07T04:59:14.331Z,22.31
2018-08-07T05:00:14.261Z,22.21
2018-08-07T05:01:14.165Z,22.29
2018-08-07T05:02:14.101Z,22.35
2018-08-07T05:04:56.329Z,22.29
2018-08-07T05:05:56.319Z,22.27
2018-08-07T05:06:56.181Z,22.31
2018-08-07T05:07:56.120Z,22.33
2018-08-07T05:08:56.015Z,22.36
2018-08-07T05:09:55.966Z,22.26
2018-08-07T05:10:55.856Z,22.33
2018-08-07T05:13:37.878Z,22.33
2018-08-07T05:16:19.856Z,22.41
2018-08-07T05:17:19.763Z,22.44
2018-08-07T05:18:19.693Z,22.45
2018-08-07T05:19:19.606Z,22.41
2018-08-07T05:20:19.525Z,22.49
2018-08-07T05:21:19.448Z,22.54
2018-08-07T05:22:19.374Z,22.66
2018-08-07T05:23:19.343Z,22.67
2018-08-07T05:24:19.206Z,22.67
2018-08-07T05:25:20.206Z,22.67
2018-08-07T05:26:19.058Z,22.76
2018-08-07T05:29:01.356Z,22.89
2018-08-07T05:30:01.272Z,22.93
2018-08-07T05:31:01.184Z,22.89
2018-08-07T05:33:43.488Z,22.99
2018-08-07T05:34:43.358Z,22.96
2018-08-07T05:35:43.414Z,22.96
2018-08-07T05:36:43.196Z,23.04
2018-08-07T05:37:43.950Z,23.11
2018-08-07T05:38:44.003Z,23.11
2018-08-07T05:39:42.895Z,23.15
2018-08-07T05:40:42.887Z,23.22
2018-08-07T05:41:42.732Z,23.25
2018-08-07T05:42:42.696Z,23.34
2018-08-07T05:43:42.584Z,23.31
2018-08-07T05:44:42.522Z,23.39
2018-08-07T05:45:42.414Z,23.41
2018-08-07T05:46:42.364Z,23.38
2018-08-07T05:47:42.255Z,23.39
2018-08-07T05:50:24.482Z,23.56
2018-08-07T05:51:24.282Z,23.57
2018-08-07T05:52:24.197Z,23.63
2018-08-07T05:53:24.115Z,23.64
2018-08-07T05:54:24.062Z,23.64
2018-08-07T05:55:24.018Z,23.68
2018-08-07T05:56:23.900Z,23.67
2018-08-07T05:59:05.856Z,23.75
2018-08-07T06:00:05.807Z,23.81
2018-08-07T06:01:05.705Z,24.05
2018-08-07T06:02:05.626Z,23.96
2018-08-07T06:03:05.541Z,24.05
2018-08-07T06:04:05.471Z,24.05
2018-08-07T06:05:05.477Z,24.04
2018-08-07T06:06:05.333Z,24.14
2018-08-07T06:07:05.236Z,24.19
2018-08-07T06:08:05.159Z,24.21
2018-08-07T06:09:05.084Z,24.29
2018-08-07T06:11:47.387Z,25.11
2018-08-07T06:12:47.300Z,25.89
2018-08-07T06:13:47.207Z,26.68
2018-08-07T06:14:47.166Z,27.31
2018-08-07T06:15:47.043Z,27.88
2018-08-07T06:16:47.075Z,28.05
2018-08-07T06:17:46.985Z,28.27
2018-08-07T06:18:46.918Z,28.23
2018-08-07T06:19:46.756Z,28.50
2018-08-07T06:20:46.709Z,28.87
2018-08-07T06:21:46.721Z,29.29
2018-08-07T06:22:48.472Z,29.41
2018-08-07T06:23:46.957Z,29.14
2018-08-07T06:24:46.903Z,29.14
2018-08-07T06:25:46.319Z,28.70
2018-08-07T06:26:47.259Z,28.62
2018-08-07T06:27:46.164Z,28.69
2018-08-07T06:28:46.107Z,28.89
2018-08-07T06:29:45.998Z,29.35
2018-08-07T06:30:45.956Z,29.79
2018-08-07T06:31:45.865Z,29.99
2018-08-07T06:32:45.808Z,29.95
2018-08-07T06:33:45.724Z,29.89
2018-08-07T06:34:45.675Z,29.73
2018-08-07T06:35:45.615Z,29.64
2018-08-07T06:38:27.881Z,30.25
2018-08-07T06:39:27.791Z,30.18
2018-08-07T06:40:27.737Z,30.22
2018-08-07T06:41:27.666Z,30.15
2018-08-07T06:42:27.619Z,29.27
2018-08-07T06:43:27.519Z,29.69
2018-08-07T06:44:27.435Z,30.11
2018-08-07T06:45:27.383Z,29.88
2018-08-07T06:46:27.306Z,30.45
2018-08-07T06:47:27.263Z,30.13
2018-08-07T06:48:27.165Z,30.03
2018-08-07T06:49:27.100Z,30.60
2018-08-07T06:50:27.009Z,31.23
2018-08-07T06:51:26.950Z,30.73
2018-08-07T06:52:26.888Z,30.96
2018-08-07T06:53:26.811Z,30.59
2018-08-07T06:54:26.741Z,29.82
2018-08-07T06:57:08.899Z,30.13
2018-08-07T06:58:08.971Z,30.30
2018-08-07T06:59:08.779Z,29.86
2018-08-07T07:00:08.688Z,29.85
2018-08-07T07:01:08.595Z,30.07
2018-08-07T07:03:50.898Z,30.57
2018-08-07T07:04:50.810Z,30.97
2018-08-07T07:05:50.733Z,31.28
2018-08-07T07:06:50.667Z,31.91
2018-08-07T07:07:50.604Z,31.56
2018-08-07T07:08:50.623Z,31.82
2018-08-07T07:09:50.507Z,32.49
2018-08-07T07:10:50.399Z,32.49
2018-08-07T07:11:50.324Z,32.49
2018-08-07T07:12:50.311Z,32.78
2018-08-07T07:13:50.203Z,32.73
2018-08-07T07:14:50.126Z,32.81
2018-08-07T07:15:50.161Z,33.40
2018-08-07T07:16:51.491Z,33.81
2018-08-07T07:17:50.924Z,33.65
2018-08-07T07:18:50.542Z,31.91
2018-08-07T07:19:50.592Z,31.78
2018-08-07T07:20:51.963Z,32.14
2018-08-07T07:21:49.631Z,32.90
2018-08-07T07:24:31.910Z,33.20
2018-08-07T07:27:13.896Z,33.78
2018-08-07T07:28:13.826Z,33.78
2018-08-07T07:29:13.774Z,33.22
2018-08-07T07:30:13.732Z,32.84
2018-08-07T07:31:13.635Z,33.86
2018-08-07T07:32:13.592Z,34.40
2018-08-07T07:33:13.475Z,34.65
2018-08-07T07:34:13.473Z,34.83
2018-08-07T07:35:13.536Z,34.78
2018-08-07T07:37:55.380Z,35.00
2018-08-07T07:40:37.463Z,35.37
2018-08-07T07:41:37.333Z,35.69
2018-08-07T07:42:37.264Z,35.39
2018-08-07T07:43:37.196Z,35.37
2018-08-07T07:44:37.143Z,35.85
2018-08-07T07:45:37.101Z,35.96
2018-08-07T07:46:37.059Z,35.87
2018-08-07T07:47:36.981Z,35.74
2018-08-07T07:48:36.880Z,34.76
2018-08-07T07:49:36.862Z,34.90
2018-08-07T07:50:36.828Z,34.56
2018-08-07T07:51:36.659Z,34.19
2018-08-07T07:52:36.589Z,33.96
2018-08-07T07:53:36.546Z,33.41
2018-08-07T07:54:36.464Z,34.15
2018-08-07T07:55:36.407Z,34.94
2018-08-07T07:56:36.546Z,35.37
2018-08-07T07:57:36.301Z,35.71
2018-08-07T07:58:36.208Z,35.29
2018-08-07T07:59:36.157Z,36.08
2018-08-07T08:00:36.070Z,36.13
2018-08-07T08:01:36.036Z,36.55
2018-08-07T08:02:35.936Z,37.15
2018-08-07T08:03:35.883Z,37.16
2018-08-07T08:04:35.800Z,37.82
2018-08-07T08:05:35.761Z,38.18
2018-08-07T08:06:35.702Z,37.85
2018-08-07T08:07:35.603Z,37.87
2018-08-07T08:08:35.531Z,37.68
2018-08-07T08:09:35.477Z,38.19
2018-08-07T08:10:35.485Z,38.30
2018-08-07T08:11:35.388Z,38.25
2018-08-07T08:12:35.272Z,37.28
2018-08-07T08:13:35.219Z,37.60
2018-08-07T08:14:35.145Z,37.77
2018-08-07T08:15:35.102Z,38.04
2018-08-07T08:16:35.132Z,37.95
2018-08-07T08:17:35.998Z,38.12
2018-08-07T08:18:34.900Z,36.43
2018-08-07T08:19:34.829Z,36.94
2018-08-07T08:20:34.761Z,37.11
2018-08-07T08:21:34.705Z,37.42
2018-08-07T08:22:34.660Z,37.66
2018-08-07T08:23:34.588Z,37.78
2018-08-07T08:24:34.510Z,38.12
2018-08-07T08:27:16.442Z,38.41
2018-08-07T08:29:58.481Z,39.10
2018-08-07T08:30:58.350Z,39.00
2018-08-07T08:31:58.291Z,39.14
2018-08-07T08:32:59.242Z,39.59
2018-08-07T08:33:58.166Z,39.73
2018-08-07T08:34:58.159Z,39.17
2018-08-07T08:35:58.046Z,39.10
2018-08-07T08:36:57.984Z,38.65
2018-08-07T08:37:57.938Z,38.65
2018-08-07T08:40:39.910Z,39.20
2018-08-07T08:41:39.861Z,39.12
2018-08-07T08:42:39.787Z,39.01
2018-08-07T08:43:39.768Z,39.38
2018-08-07T08:44:39.689Z,39.51
2018-08-07T08:47:21.914Z,40.24
2018-08-07T08:48:22.005Z,39.80
2018-08-07T08:49:21.788Z,40.03
2018-08-07T08:52:03.906Z,40.06
2018-08-07T08:53:04.039Z,40.15
2018-08-07T08:54:03.847Z,40.26
2018-08-07T08:56:45.961Z,39.91
2018-08-07T08:57:45.876Z,40.21
2018-08-07T08:58:45.832Z,39.50
2018-08-07T08:59:45.729Z,39.84
2018-08-07T09:00:45.680Z,39.48
2018-08-07T09:01:45.635Z,39.38
2018-08-07T09:02:45.576Z,39.54
2018-08-07T09:03:45.508Z,39.97
2018-08-07T09:04:45.438Z,39.56
2018-08-07T09:05:45.415Z,38.60
2018-08-07T09:06:45.313Z,39.10
2018-08-07T09:07:45.265Z,39.50
2018-08-07T09:08:45.219Z,39.72
2018-08-07T09:09:45.128Z,39.41
2018-08-07T09:10:45.220Z,39.69
2018-08-07T09:11:45.033Z,39.91
2018-08-07T09:12:44.966Z,40.16
2018-08-07T09:13:44.916Z,40.51
2018-08-07T09:14:44.848Z,41.13
2018-08-07T09:15:44.798Z,41.58
2018-08-07T09:16:44.708Z,41.58
2018-08-07T09:19:27.012Z,41.57
2018-08-07T09:22:08.919Z,41.21
2018-08-07T09:24:50.949Z,41.09
2018-08-07T09:27:32.920Z,41.07
2018-08-07T09:30:14.953Z,40.67
2018-08-07T09:31:14.879Z,40.73
2018-08-07T09:32:14.805Z,40.26
2018-08-07T09:33:14.804Z,40.71
2018-08-07T09:34:14.706Z,40.72
2018-08-07T09:35:14.845Z,40.94
2018-08-07T09:36:14.605Z,41.05
2018-08-07T09:37:14.546Z,41.29
2018-08-07T09:38:14.464Z,41.20
2018-08-07T09:39:14.410Z,40.92
2018-08-07T09:40:14.470Z,40.95
2018-08-07T09:42:56.444Z,41.02
2018-08-07T09:43:56.372Z,40.98
2018-08-07T09:44:56.361Z,41.46
2018-08-07T09:45:56.300Z,41.50
2018-08-07T09:46:56.188Z,41.73
2018-08-07T09:47:56.140Z,41.55
2018-08-07T09:48:56.092Z,41.38
2018-08-07T09:49:56.088Z,41.50
2018-08-07T09:50:55.985Z,42.02
2018-08-07T09:51:55.934Z,41.95
2018-08-07T09:52:55.843Z,41.82
2018-08-07T09:53:55.890Z,41.76
2018-08-07T09:54:55.739Z,41.26
2018-08-07T09:55:55.708Z,41.54
2018-08-07T09:56:55.665Z,41.00
2018-08-07T09:57:56.611Z,41.10
2018-08-07T09:58:55.503Z,41.60
2018-08-07T09:59:55.453Z,42.02
2018-08-07T10:00:55.389Z,41.70
2018-08-07T10:01:55.420Z,41.55
2018-08-07T10:02:55.265Z,41.80
2018-08-07T10:05:37.478Z,41.00
2018-08-07T10:06:38.430Z,41.35
2018-08-07T10:07:37.323Z,41.57
2018-08-07T10:08:37.265Z,41.93
2018-08-07T10:09:37.204Z,41.51
2018-08-07T10:10:37.148Z,41.07
2018-08-07T10:11:37.099Z,41.42
2018-08-07T10:12:37.131Z,41.65
2018-08-07T10:13:37.025Z,42.07
2018-08-07T10:14:36.920Z,42.48
2018-08-07T10:15:36.853Z,42.79
2018-08-07T10:16:36.811Z,41.23
2018-08-07T10:17:36.785Z,41.07
2018-08-07T10:18:36.693Z,41.00
2018-08-07T10:19:36.636Z,40.98
2018-08-07T10:20:36.589Z,41.10
2018-08-07T10:21:36.528Z,41.47
2018-08-07T10:22:36.495Z,41.80
2018-08-07T10:23:36.405Z,42.30
2018-08-07T10:24:36.412Z,42.64
2018-08-07T10:25:36.308Z,42.48
2018-08-07T10:26:36.256Z,42.36
2018-08-07T10:27:36.217Z,42.14
2018-08-07T10:28:36.129Z,42.26
2018-08-07T10:29:36.089Z,41.86
2018-08-07T10:30:36.049Z,41.53
2018-08-07T10:31:35.964Z,41.00
2018-08-07T10:32:36.913Z,41.72
2018-08-07T10:33:35.883Z,42.38
2018-08-07T10:34:35.798Z,42.23
2018-08-07T10:35:35.758Z,41.54
2018-08-07T10:36:35.704Z,40.49
2018-08-07T10:37:35.696Z,40.53
2018-08-07T10:38:35.630Z,41.44
2018-08-07T10:39:35.542Z,41.19
2018-08-07T10:40:35.516Z,41.44
2018-08-07T10:41:35.403Z,41.66
2018-08-07T10:42:36.415Z,41.58
2018-08-07T10:43:35.360Z,41.26
2018-08-07T10:44:35.238Z,41.29
2018-08-07T10:45:35.178Z,41.80
2018-08-07T10:46:35.223Z,42.30
2018-08-07T10:47:35.085Z,41.85
2018-08-07T10:48:35.015Z,41.89
2018-08-07T10:49:34.990Z,41.42
2018-08-07T10:50:34.905Z,40.88
2018-08-07T10:51:34.843Z,40.67
2018-08-07T10:52:34.806Z,39.85
2018-08-07T10:53:34.734Z,39.65
2018-08-07T10:54:34.718Z,39.82
2018-08-07T10:55:34.613Z,40.36
2018-08-07T10:58:16.994Z,41.12
2018-08-07T10:59:16.907Z,41.29
2018-08-07T11:00:16.887Z,41.23
2018-08-07T11:02:59.002Z,40.67
2018-08-07T11:03:58.890Z,40.64
2018-08-07T11:04:58.829Z,41.00
2018-08-07T11:05:58.774Z,40.53
2018-08-07T11:06:58.840Z,40.19
2018-08-07T11:07:58.658Z,40.36
2018-08-07T11:08:58.602Z,39.66
2018-08-07T11:11:40.483Z,40.33
2018-08-07T11:12:40.389Z,40.11
2018-08-07T11:13:40.385Z,40.56
2018-08-07T11:14:40.277Z,40.72
2018-08-07T11:15:40.238Z,40.98
2018-08-07T11:16:40.160Z,40.60
2018-08-07T11:17:40.103Z,41.01
2018-08-07T11:18:40.038Z,41.10
2018-08-07T11:19:39.987Z,41.07
2018-08-07T11:20:39.965Z,41.33
2018-08-07T11:21:39.859Z,40.88
2018-08-07T11:22:39.817Z,40.61
2018-08-07T11:23:39.763Z,40.36
2018-08-07T11:24:39.746Z,40.85
2018-08-07T11:25:39.659Z,40.79
2018-08-07T11:26:39.604Z,41.01
2018-08-07T11:27:39.528Z,40.80
2018-08-07T11:28:39.473Z,40.29
2018-08-07T11:29:39.408Z,40.66
2018-08-07T11:30:40.386Z,40.76
2018-08-07T11:31:39.319Z,41.02
2018-08-07T11:34:21.446Z,40.22
2018-08-07T11:35:21.522Z,40.38
2018-08-07T11:36:21.370Z,40.68
2018-08-07T11:39:03.473Z,41.10
2018-08-07T11:40:03.400Z,41.04
2018-08-07T11:41:03.377Z,40.95
2018-08-07T11:42:03.315Z,40.92
2018-08-07T11:43:03.222Z,41.04
2018-08-07T11:45:45.450Z,40.76
2018-08-07T11:48:27.476Z,41.54
2018-08-07T11:49:27.399Z,41.62
2018-08-07T11:50:27.402Z,41.42
2018-08-07T11:51:27.295Z,41.04
2018-08-07T11:52:27.232Z,40.57
2018-08-07T11:53:27.158Z,39.84
2018-08-07T11:54:27.103Z,39.31
2018-08-07T11:55:27.084Z,38.82
2018-08-07T11:56:27.081Z,38.78
2018-08-07T11:57:27.042Z,39.43
2018-08-07T11:58:26.876Z,39.44
2018-08-07T11:59:26.836Z,39.96
2018-08-07T12:00:26.756Z,40.02
2018-08-07T12:01:26.709Z,40.38
2018-08-07T12:02:26.788Z,40.41
2018-08-07T12:03:26.649Z,40.44
2018-08-07T12:04:26.573Z,40.49
2018-08-07T12:05:26.493Z,40.54
2018-08-07T12:06:26.414Z,40.82
2018-08-07T12:07:26.365Z,40.33
2018-08-07T12:08:26.318Z,40.28
2018-08-07T12:11:08.449Z,40.22
2018-08-07T12:12:08.447Z,39.76
2018-08-07T12:13:08.576Z,39.72
2018-08-07T12:14:08.286Z,39.63
2018-08-07T12:15:08.201Z,39.66
2018-08-07T12:16:08.195Z,39.35
2018-08-07T12:17:08.101Z,38.59
2018-08-07T12:18:08.065Z,38.37
2018-08-07T12:19:07.967Z,37.80
2018-08-07T12:20:07.912Z,37.80
2018-08-07T12:21:07.838Z,37.96
2018-08-07T12:22:07.924Z,38.04
2018-08-07T12:23:07.745Z,37.99
2018-08-07T12:24:07.653Z,38.18
2018-08-07T12:25:07.574Z,38.16
2018-08-07T12:26:07.519Z,36.99
2018-08-07T12:27:07.436Z,36.75
2018-08-07T12:28:07.429Z,36.75
2018-08-07T12:29:07.325Z,36.83
2018-08-07T12:30:07.251Z,37.21
2018-08-07T12:31:07.186Z,37.43
2018-08-07T12:32:07.141Z,37.68
2018-08-07T12:33:07.096Z,37.95
2018-08-07T12:34:07.038Z,38.19
2018-08-07T12:35:06.973Z,38.12
2018-08-07T12:36:06.870Z,37.93
2018-08-07T12:37:06.793Z,37.85
2018-08-07T12:39:48.989Z,37.80
2018-08-07T12:40:48.938Z,37.87
2018-08-07T12:41:48.839Z,37.99
2018-08-07T12:42:48.772Z,37.95
2018-08-07T12:43:48.691Z,37.69
2018-08-07T12:44:48.649Z,37.90
2018-08-07T12:45:48.580Z,37.90
2018-08-07T12:46:48.505Z,37.93
2018-08-07T12:47:48.426Z,38.02
2018-08-07T12:48:48.393Z,38.15
2018-08-07T12:49:48.327Z,38.04
2018-08-07T12:50:48.290Z,37.75
2018-08-07T12:51:48.161Z,37.66
2018-08-07T12:52:48.122Z,37.69
2018-08-07T12:53:48.038Z,37.69
2018-08-07T12:54:48.021Z,37.72
2018-08-07T12:55:47.912Z,37.75
2018-08-07T12:56:47.849Z,37.85
2018-08-07T12:57:47.809Z,37.97
2018-08-07T12:58:47.702Z,37.75
2018-08-07T12:59:47.629Z,37.50
2018-08-07T13:00:47.635Z,37.63
2018-08-07T13:01:47.568Z,37.65
2018-08-07T13:02:47.460Z,37.45
2018-08-07T13:03:47.369Z,37.49
2018-08-07T13:04:47.305Z,37.65
2018-08-07T13:05:47.280Z,37.56
2018-08-07T13:08:29.499Z,37.11
2018-08-07T13:09:29.463Z,37.20
2018-08-07T13:10:29.342Z,37.13
2018-08-07T13:11:30.303Z,37.38
2018-08-07T13:12:29.220Z,37.35
2018-08-07T13:15:11.474Z,37.30
2018-08-07T13:16:11.414Z,37.16
2018-08-07T13:17:11.380Z,36.94
2018-08-07T13:18:11.284Z,37.01
2018-08-07T13:19:11.212Z,36.87
2018-08-07T13:20:11.145Z,36.89
2018-08-07T13:21:11.065Z,37.05
2018-08-07T13:22:11.040Z,37.21
2018-08-07T13:23:10.948Z,37.02
2018-08-07T13:24:10.869Z,36.94
2018-08-07T13:25:10.797Z,37.01
2018-08-07T13:26:10.758Z,37.24
2018-08-07T13:27:10.663Z,37.40
2018-08-07T13:28:10.624Z,37.30
2018-08-07T13:29:10.531Z,37.47
2018-08-07T13:30:10.474Z,37.33
2018-08-07T13:31:10.461Z,37.34
2018-08-07T13:32:10.357Z,37.40
2018-08-07T13:33:10.263Z,37.35
2018-08-07T13:34:10.204Z,37.39
2018-08-07T13:35:10.135Z,37.18
2018-08-07T13:37:52.032Z,37.42
2018-08-07T13:38:51.925Z,37.46
2018-08-07T13:39:51.851Z,37.53
2018-08-07T13:40:51.793Z,37.49
2018-08-07T13:41:51.719Z,37.39
2018-08-07T13:42:51.697Z,37.42
2018-08-07T13:43:51.591Z,37.35
2018-08-07T13:44:51.510Z,37.43
2018-08-07T13:45:51.536Z,37.39
2018-08-07T13:46:51.375Z,37.46
2018-08-07T13:47:51.332Z,37.39
2018-08-07T13:48:51.257Z,37.54
2018-08-07T13:49:51.178Z,37.46
2018-08-07T13:50:51.106Z,37.47
2018-08-07T13:51:51.059Z,37.53
2018-08-07T13:52:52.087Z,37.43
2018-08-07T13:53:50.929Z,37.35
2018-08-07T13:54:50.857Z,37.34
2018-08-07T13:55:50.882Z,37.35
2018-08-07T13:56:50.702Z,37.47
2018-08-07T13:57:50.715Z,37.46
2018-08-07T13:58:50.572Z,37.46
2018-08-07T13:59:50.515Z,37.46
2018-08-07T14:00:50.450Z,37.46
2018-08-07T14:01:50.377Z,37.43
2018-08-07T14:02:50.298Z,37.50
2018-08-07T14:03:50.300Z,37.50
2018-08-07T14:04:50.198Z,37.59
2018-08-07T14:05:50.102Z,37.54
2018-08-07T14:06:50.181Z,37.54
2018-08-07T14:07:49.977Z,37.65
2018-08-07T14:08:49.905Z,37.50
2018-08-07T14:09:49.881Z,37.39
2018-08-07T14:10:49.777Z,37.49
2018-08-07T14:11:49.704Z,37.46
2018-08-07T14:12:49.635Z,37.46
2018-08-07T14:13:49.572Z,37.39
2018-08-07T14:14:49.507Z,37.35
2018-08-07T14:15:49.463Z,37.39
2018-08-07T14:18:31.490Z,37.39
2018-08-07T14:19:31.440Z,37.40
2018-08-07T14:20:31.387Z,37.40
2018-08-07T14:21:31.320Z,37.42
2018-08-07T14:22:31.226Z,37.46
2018-08-07T14:23:31.163Z,37.34
2018-08-07T14:24:31.090Z,37.39
2018-08-07T14:25:31.045Z,37.39
2018-08-07T14:26:30.964Z,37.31
2018-08-07T14:27:30.910Z,37.34
2018-08-07T14:28:30.875Z,37.39
2018-08-07T14:29:30.772Z,37.34
2018-08-07T14:30:30.727Z,37.33
2018-08-07T14:31:31.714Z,37.35
2018-08-07T14:32:30.562Z,37.42
2018-08-07T14:33:30.492Z,37.39